Time;durP1;ratioP1;P1;durP2;ratioP2;P2;SDS_P1;SDS_P2;PMS_P1;PMS_P2;Temp;Humidity;BMP_temperature;BMP_pressure;BME280_temperature;BME280_humidity;BME280_pressure;Samples;Min_cycle;Max_cycle;Signal;HPM_P1;HPM_P2
2022/04/29 00:02:14;;;;;;;5.33;4.83;;;9.80;99.90;;;;;;5064988;28;20435;-71
2022/04/29 00:04:41;;;;;;;6.70;5.07;;;9.70;99.90;;;;;;5068397;28;20200;-72
2022/04/29 00:07:07;;;;;;;6.93;5.27;;;9.70;99.90;;;;;;5066844;28;20286;-72
2022/04/29 00:09:34;;;;;;;6.63;4.90;;;9.60;99.90;;;;;;5068495;28;20427;-72
2022/04/29 00:12:02;;;;;;;6.40;5.50;;;9.60;99.90;;;;;;5065320;28;20434;-72
2022/04/29 00:14:28;;;;;;;6.03;5.43;;;9.60;99.90;;;;;;5065295;28;20553;-71
2022/04/29 00:16:54;;;;;;;9.07;5.37;;;9.60;99.90;;;;;;5062654;28;20976;-72
2022/04/29 00:19:19;;;;;;;10.43;5.30;;;9.60;99.90;;;;;;5068387;28;20419;-71
2022/04/29 00:21:45;;;;;;;8.07;5.23;;;9.60;99.90;;;;;;5066696;28;20191;-72
2022/04/29 00:24:11;;;;;;;7.47;5.60;;;9.60;99.90;;;;;;5066803;28;20212;-71
2022/04/29 00:26:38;;;;;;;5.90;5.30;;;9.70;99.90;;;;;;5065086;28;20527;-71
2022/04/29 00:29:04;;;;;;;6.00;5.40;;;9.60;99.90;;;;;;5068230;28;20783;-71
2022/04/29 00:31:31;;;;;;;9.17;4.97;;;9.60;99.90;;;;;;5065603;28;20850;-72
2022/04/29 00:33:57;;;;;;;7.17;5.00;;;9.60;99.90;;;;;;5066160;28;20467;-72
2022/04/29 00:36:23;;;;;;;6.30;5.13;;;9.50;99.90;;;;;;5065256;28;20438;-71
2022/04/29 00:38:48;;;;;;;7.70;5.27;;;9.60;99.90;;;;;;5068490;28;20477;-72
2022/04/29 00:41:22;;;;;;;6.40;5.10;;;9.60;99.90;;;;;;5064915;28;20531;-71
2022/04/29 00:44:02;;;;;;;6.93;5.30;;;9.40;99.90;;;;;;5067106;28;20543;-72
2022/04/29 00:46:28;;;;;;;5.73;5.13;;;9.30;99.90;;;;;;5064971;28;20664;-71
2022/04/29 00:48:54;;;;;;;6.80;4.70;;;9.20;99.90;;;;;;5054479;28;20432;-71
2022/04/29 00:51:19;;;;;;;5.37;4.87;;;9.00;99.90;;;;;;5058478;28;20521;-72
2022/04/29 00:53:45;;;;;;;6.70;5.50;;;9.00;99.90;;;;;;5067418;28;20271;-72
2022/04/29 00:56:11;;;;;;;9.23;5.43;;;8.90;99.90;;;;;;5066160;28;20271;-71
2022/04/29 00:58:42;;;;;;;5.90;5.40;;;8.90;99.90;;;;;;5065601;28;20684;-71
2022/04/29 01:01:08;;;;;;;6.33;5.10;;;8.80;99.90;;;;;;5063206;28;20496;-71
2022/04/29 01:03:37;;;;;;;6.00;5.40;;;8.70;99.90;;;;;;5065419;28;20438;-72
2022/04/29 01:06:03;;;;;;;7.00;6.10;;;8.70;99.90;;;;;;5065798;28;20659;-72
2022/04/29 01:08:28;;;;;;;6.37;5.40;;;8.70;99.90;;;;;;5066036;28;20469;-72
2022/04/29 01:10:54;;;;;;;7.47;5.40;;;8.80;99.90;;;;;;5064269;28;20199;-71
2022/04/29 01:13:20;;;;;;;6.60;5.40;;;8.90;99.90;;;;;;5066798;28;20192;-72
2022/04/29 01:15:46;;;;;;;5.97;5.13;;;9.00;99.90;;;;;;5064682;28;20576;-71
2022/04/29 01:18:13;;;;;;;7.40;5.70;;;9.00;99.90;;;;;;5066406;28;20920;-71
2022/04/29 01:20:39;;;;;;;6.43;5.37;;;9.00;99.90;;;;;;5065377;28;20437;-72
2022/04/29 01:23:06;;;;;;;6.17;5.57;;;9.00;99.90;;;;;;5065097;28;20427;-72
2022/04/29 01:25:32;;;;;;;8.20;6.30;;;9.00;99.90;;;;;;5065445;28;20713;-71
2022/04/29 01:27:59;;;;;;;7.37;5.93;;;8.90;99.90;;;;;;5067025;28;20414;-71
2022/04/29 01:30:24;;;;;;;6.43;5.83;;;8.90;99.90;;;;;;5066520;28;20453;-72
2022/04/29 01:32:53;;;;;;;6.77;6.00;;;8.80;99.90;;;;;;5064589;28;20454;-70
2022/04/29 01:35:19;;;;;;;6.93;5.73;;;8.70;99.90;;;;;;5064501;28;20619;-71
2022/04/29 01:37:45;;;;;;;9.43;6.53;;;8.70;99.90;;;;;;5065650;28;20465;-71
2022/04/29 01:40:12;;;;;;;7.80;5.97;;;8.90;99.90;;;;;;5064318;28;20190;-70
2022/04/29 01:42:38;;;;;;;7.40;5.90;;;9.00;99.90;;;;;;5063760;28;20180;-71
2022/04/29 01:45:04;;;;;;;7.60;6.07;;;9.10;99.90;;;;;;5062375;28;21079;-72
2022/04/29 01:47:30;;;;;;;8.33;6.20;;;9.00;99.90;;;;;;5066168;28;20414;-70
2022/04/29 01:49:55;;;;;;;6.73;5.97;;;8.90;99.90;;;;;;5065782;28;20441;-71
2022/04/29 01:52:21;;;;;;;9.50;6.20;;;8.90;99.90;;;;;;5064826;28;20180;-70
2022/04/29 01:54:46;;;;;;;6.57;5.53;;;8.90;99.90;;;;;;5065163;28;20261;-70
2022/04/29 01:57:12;;;;;;;9.60;5.57;;;9.00;99.90;;;;;;5066122;28;20519;-70
2022/04/29 01:59:38;;;;;;;6.57;5.70;;;9.00;99.90;;;;;;5066432;28;20287;-71
2022/04/29 02:02:06;;;;;;;7.23;5.37;;;9.00;99.90;;;;;;5064713;28;20176;-70
2022/04/29 02:04:32;;;;;;;8.43;6.00;;;8.90;99.90;;;;;;5063875;28;20235;-70
2022/04/29 02:06:57;;;;;;;6.07;5.43;;;9.00;99.90;;;;;;5066279;28;20411;-70
2022/04/29 02:09:23;;;;;;;6.30;5.70;;;8.80;99.90;;;;;;5066106;28;20520;-70
2022/04/29 02:12:04;;;;;;;8.87;5.50;;;8.80;99.90;;;;;;5063593;28;20575;-70
2022/04/29 02:14:31;;;;;;;6.37;5.77;;;8.80;99.90;;;;;;5064874;28;20231;-71
2022/04/29 02:16:57;;;;;;;7.70;5.90;;;8.60;99.90;;;;;;5063820;28;20833;-70
2022/04/29 02:19:24;;;;;;;7.40;6.70;;;8.50;99.90;;;;;;5064609;28;20434;-70
2022/04/29 02:21:49;;;;;;;10.90;6.47;;;8.40;99.90;;;;;;5063687;28;20889;-71
2022/04/29 02:24:15;;;;;;;7.50;6.17;;;8.40;99.90;;;;;;5065704;28;20458;-70
2022/04/29 02:26:41;;;;;;;7.03;6.00;;;8.40;99.90;;;;;;5065369;28;20165;-71
2022/04/29 02:29:09;;;;;;;7.43;6.70;;;8.40;99.90;;;;;;5065067;28;20689;-70
2022/04/29 02:31:35;;;;;;;7.43;6.63;;;8.40;99.90;;;;;;5062734;28;20196;-71
2022/04/29 02:34:01;;;;;;;7.60;6.77;;;8.40;99.90;;;;;;5065727;28;20554;-70
2022/04/29 02:36:26;;;;;;;6.90;6.20;;;8.30;99.90;;;;;;5063498;28;20315;-71
2022/04/29 02:38:52;;;;;;;7.30;5.63;;;8.10;99.90;;;;;;5065998;28;20173;-71
2022/04/29 02:41:17;;;;;;;7.90;5.90;;;8.10;99.90;;;;;;5059642;28;20581;-70
2022/04/29 02:43:43;;;;;;;7.73;6.33;;;8.10;99.90;;;;;;5065809;28;20188;-70
2022/04/29 02:46:09;;;;;;;7.03;5.70;;;8.10;99.90;;;;;;5062654;28;20169;-72
2022/04/29 02:48:34;;;;;;;6.63;5.80;;;8.00;99.90;;;;;;5066229;28;20214;-71
2022/04/29 02:51:00;;;;;;;9.70;6.30;;;8.00;99.90;;;;;;5064447;28;20169;-70
2022/04/29 02:53:25;;;;;;;6.90;6.20;;;8.00;99.90;;;;;;5067012;28;20200;-71
2022/04/29 02:55:51;;;;;;;6.40;5.80;;;8.00;99.90;;;;;;5066588;28;20208;-71
2022/04/29 02:58:16;;;;;;;7.80;6.20;;;8.00;99.90;;;;;;5067434;28;20191;-71
2022/04/29 03:00:42;;;;;;;7.73;6.00;;;8.00;99.90;;;;;;5067691;28;20199;-71
2022/04/29 03:03:08;;;;;;;8.43;6.47;;;7.80;99.90;;;;;;5068023;28;20207;-71
2022/04/29 03:05:34;;;;;;;7.60;6.80;;;7.80;99.90;;;;;;5068155;28;20181;-71
2022/04/29 03:07:59;;;;;;;9.87;6.00;;;7.70;99.90;;;;;;5069271;28;20173;-72
2022/04/29 03:10:25;;;;;;;8.23;7.10;;;7.80;99.90;;;;;;5067957;28;20193;-72
2022/04/29 03:12:51;;;;;;;7.03;5.93;;;7.80;99.90;;;;;;5067966;28;20176;-70
2022/04/29 03:15:17;;;;;;;7.83;7.00;;;7.80;99.90;;;;;;5067375;28;20485;-71
2022/04/29 03:20:36;;;;;;;6.80;6.10;;;7.80;99.90;;;;;;5068869;28;20434;-72
2022/04/29 03:23:02;;;;;;;8.50;6.00;;;7.90;99.90;;;;;;5060449;28;20403;-71
2022/04/29 03:25:27;;;;;;;7.00;5.77;;;7.90;99.90;;;;;;5067997;28;21309;-71
2022/04/29 03:27:53;;;;;;;7.70;6.57;;;7.70;99.90;;;;;;5067861;28;20540;-70
2022/04/29 03:30:19;;;;;;;6.70;6.10;;;7.70;99.90;;;;;;5068584;28;20326;-71
2022/04/29 03:32:55;;;;;;;7.03;6.10;;;7.70;99.90;;;;;;5068211;28;20192;-71
2022/04/29 03:35:21;;;;;;;7.50;6.20;;;7.60;99.90;;;;;;5065893;28;20203;-71
2022/04/29 03:37:51;;;;;;;6.57;5.87;;;7.60;99.90;;;;;;5068827;28;20423;-71
2022/04/29 03:40:17;;;;;;;9.27;6.50;;;7.60;99.90;;;;;;5066622;28;20434;-71
2022/04/29 03:42:43;;;;;;;8.07;6.30;;;7.50;99.90;;;;;;5065869;28;20425;-71
2022/04/29 03:45:09;;;;;;;6.67;5.97;;;7.60;99.90;;;;;;5064822;28;20541;-71
2022/04/29 03:47:35;;;;;;;8.23;6.20;;;7.60;99.90;;;;;;5066203;28;20545;-71
2022/04/29 03:50:01;;;;;;;7.53;6.27;;;7.60;99.90;;;;;;5068061;28;20777;-71
2022/04/29 03:52:27;;;;;;;7.97;6.60;;;7.50;99.90;;;;;;5066389;28;20176;-71
2022/04/29 03:54:53;;;;;;;9.37;6.17;;;7.40;99.90;;;;;;5067213;28;20859;-71
2022/04/29 03:57:18;;;;;;;8.10;6.60;;;7.40;99.90;;;;;;5067825;28;20199;-71
2022/04/29 03:59:43;;;;;;;7.60;6.70;;;7.40;99.90;;;;;;5067645;28;20253;-71
2022/04/29 04:02:09;;;;;;;8.07;6.47;;;7.40;99.90;;;;;;5058038;28;20173;-71
2022/04/29 04:04:34;;;;;;;8.07;6.53;;;7.40;99.90;;;;;;5066759;28;20275;-72
2022/04/29 04:07:03;;;;;;;9.10;7.17;;;7.40;99.90;;;;;;5068607;28;20165;-71
2022/04/29 04:09:29;;;;;;;7.40;6.50;;;7.40;99.90;;;;;;5067571;28;20207;-71
2022/04/29 04:11:54;;;;;;;10.67;6.80;;;7.50;99.90;;;;;;5067449;28;20465;-71
2022/04/29 04:14:20;;;;;;;9.43;7.13;;;7.50;99.90;;;;;;5067877;28;20774;-71
2022/04/29 04:16:46;;;;;;;10.00;6.40;;;7.50;99.90;;;;;;5064029;28;20192;-72
2022/04/29 04:19:11;;;;;;;9.33;7.57;;;7.50;99.90;;;;;;5067061;28;20184;-71
2022/04/29 04:21:37;;;;;;;7.67;6.83;;;7.50;99.90;;;;;;5066442;28;20761;-71
2022/04/29 04:24:03;;;;;;;9.07;6.93;;;7.40;99.90;;;;;;5065725;28;20276;-72
2022/04/29 04:26:29;;;;;;;8.00;7.13;;;7.40;99.90;;;;;;5066912;28;20188;-72
2022/04/29 04:28:54;;;;;;;8.00;7.13;;;7.40;99.90;;;;;;5066447;28;20435;-72
2022/04/29 04:31:24;;;;;;;7.13;6.43;;;7.40;99.90;;;;;;5066953;28;20180;-71
2022/04/29 04:33:50;;;;;;;7.40;6.47;;;7.40;99.90;;;;;;5066098;28;20334;-70
2022/04/29 04:36:16;;;;;;;8.20;6.60;;;7.50;99.90;;;;;;5067225;28;20786;-70
2022/04/29 04:38:42;;;;;;;10.20;7.20;;;7.50;99.90;;;;;;5067101;28;20441;-71
2022/04/29 04:41:08;;;;;;;7.83;6.53;;;7.50;99.90;;;;;;5064339;28;20423;-72
2022/04/29 04:43:35;;;;;;;7.20;6.30;;;7.60;99.90;;;;;;5065111;28;20196;-71
2022/04/29 04:46:01;;;;;;;6.93;6.23;;;7.70;99.90;;;;;;5063382;28;20431;-71
2022/04/29 04:48:27;;;;;;;18.50;14.97;;;7.80;99.90;;;;;;5067628;28;20475;-71
2022/04/29 04:50:53;;;;;;;10.90;7.80;;;7.80;99.90;;;;;;5066078;28;20184;-70
2022/04/29 04:53:19;;;;;;;7.80;7.00;;;7.80;99.90;;;;;;5065021;28;20481;-72
2022/04/29 04:55:44;;;;;;;9.40;6.27;;;7.90;99.90;;;;;;5065793;28;20951;-71
2022/04/29 04:58:10;;;;;;;8.47;6.53;;;7.90;99.90;;;;;;5061581;28;20656;-71
2022/04/29 05:00:36;;;;;;;10.00;6.10;;;8.00;99.90;;;;;;5065945;28;20804;-71
2022/04/29 05:03:01;;;;;;;8.10;6.90;;;8.10;99.90;;;;;;5065060;28;20180;-72
2022/04/29 05:05:27;;;;;;;11.40;6.53;;;8.20;99.90;;;;;;5066244;28;20557;-71
2022/04/29 05:07:53;;;;;;;9.60;6.43;;;8.30;99.90;;;;;;5065287;28;20187;-71
2022/04/29 05:10:19;;;;;;;7.80;7.00;;;8.40;99.90;;;;;;5066224;28;20572;-70
2022/04/29 05:12:46;;;;;;;7.27;6.53;;;8.50;99.90;;;;;;5064072;28;20607;-72
2022/04/29 05:15:14;;;;;;;9.67;6.67;;;8.60;99.90;;;;;;5062876;28;20571;-72
2022/04/29 05:17:40;;;;;;;9.67;7.10;;;8.70;99.90;;;;;;5064002;28;20426;-72
2022/04/29 05:20:11;;;;;;;8.60;7.10;;;8.80;99.90;;;;;;5066719;28;20422;-72
2022/04/29 05:22:37;;;;;;;10.00;7.40;;;8.90;99.90;;;;;;5064291;28;20435;-72
2022/04/29 05:25:04;;;;;;;6.97;6.10;;;9.10;99.90;;;;;;5064872;28;20780;-71
2022/04/29 05:27:30;;;;;;;9.97;7.37;;;8.70;99.90;;;;;;5065008;28;20521;-72
2022/04/29 05:29:55;;;;;;;7.37;6.33;;;9.40;99.90;;;;;;5065783;28;20526;-72
2022/04/29 05:32:21;;;;;;;7.37;6.37;;;9.50;99.90;;;;;;5066197;28;20218;-72
2022/04/29 05:34:47;;;;;;;9.97;6.80;;;9.70;99.90;;;;;;5065771;28;20269;-71
2022/04/29 05:37:14;;;;;;;8.27;6.87;;;9.90;99.90;;;;;;5066017;28;20207;-71
2022/04/29 05:42:24;;;;;;;8.73;6.57;;;10.30;99.90;;;;;;5065449;28;20179;-72
2022/04/29 05:44:50;;;;;;;9.40;7.00;;;10.50;99.90;;;;;;5065580;28;20507;-72
2022/04/29 05:47:16;;;;;;;8.10;6.40;;;10.70;99.90;;;;;;5064649;28;20434;-72
2022/04/29 05:49:41;;;;;;;7.93;6.63;;;10.80;99.90;;;;;;5066175;28;20484;-71
2022/04/29 05:52:08;;;;;;;8.43;7.40;;;11.00;99.90;;;;;;5064979;28;20195;-72
2022/04/29 05:54:34;;;;;;;8.10;7.27;;;11.20;99.90;;;;;;5066204;28;20249;-71
2022/04/29 05:57:01;;;;;;;7.00;6.40;;;11.20;99.90;;;;;;5074150;28;20449;-72
2022/04/29 05:59:27;;;;;;;8.80;7.10;;;11.40;99.90;;;;;;5064800;28;20422;-71
2022/04/29 06:01:53;;;;;;;7.03;6.43;;;11.50;99.90;;;;;;5063846;28;20846;-72
2022/04/29 06:04:18;;;;;;;7.45;6.30;;;11.60;99.90;;;;;;5064394;28;20429;-71
2022/04/29 06:06:44;;;;;;;8.60;6.87;;;11.80;99.90;;;;;;5065024;28;20263;-72
2022/04/29 06:09:10;;;;;;;9.07;8.17;;;12.00;99.90;;;;;;5056553;28;20179;-72
2022/04/29 06:11:35;;;;;;;7.10;6.43;;;12.20;99.90;;;;;;5064759;28;20211;-71
2022/04/29 06:14:01;;;;;;;9.37;8.00;;;12.40;99.90;;;;;;5065135;28;20283;-71
2022/04/29 06:16:27;;;;;;;7.97;7.17;;;12.50;99.90;;;;;;5063167;28;20184;-72
2022/04/29 06:18:52;;;;;;;8.00;7.20;;;12.50;99.90;;;;;;5064866;28;20196;-72
2022/04/29 06:21:18;;;;;;;10.20;7.40;;;12.70;99.90;;;;;;5064184;28;21170;-72
2022/04/29 06:23:48;;;;;;;9.07;7.67;;;12.90;99.90;;;;;;5062521;28;20420;-72
2022/04/29 06:26:14;;;;;;;15.90;7.80;;;13.20;99.90;;;;;;5063730;28;20263;-73
2022/04/29 06:28:39;;;;;;;8.37;7.57;;;13.30;99.90;;;;;;5068017;28;20509;-72
2022/04/29 06:31:05;;;;;;;11.53;8.80;;;13.30;99.90;;;;;;5069634;28;20258;-72
2022/04/29 06:33:33;;;;;;;14.30;9.33;;;13.30;99.90;;;;;;5068839;28;20214;-72
2022/04/29 06:35:58;;;;;;;18.30;9.83;;;13.30;99.90;;;;;;5064550;28;20589;-72
2022/04/29 06:38:25;;;;;;;19.47;10.87;;;13.10;99.90;;;;;;5067133;28;20549;-72
2022/04/29 06:40:50;;;;;;;13.27;9.43;;;13.00;99.90;;;;;;5064922;28;20724;-71
2022/04/29 06:43:19;;;;;;;11.00;9.50;;;13.10;99.90;;;;;;5067310;28;20455;-72
2022/04/29 06:45:44;;;;;;;14.77;10.00;;;13.00;99.90;;;;;;5067196;28;20187;-73
2022/04/29 06:48:10;;;;;;;13.10;10.53;;;12.90;99.90;;;;;;5070147;28;20407;-73
2022/04/29 06:50:35;;;;;;;15.30;9.70;;;12.90;99.90;;;;;;5067708;28;20184;-73
2022/04/29 06:53:01;;;;;;;15.67;10.13;;;12.90;99.90;;;;;;5069158;28;20256;-76
2022/04/29 06:55:27;;;;;;;11.47;9.27;;;12.90;99.90;;;;;;5063685;28;20368;-73
2022/04/29 06:57:53;;;;;;;11.83;9.83;;;12.90;99.90;;;;;;5062738;28;20200;-73
2022/04/29 07:00:19;;;;;;;14.73;10.07;;;13.00;99.90;;;;;;5057843;28;20183;-75
2022/04/29 07:02:45;;;;;;;12.37;10.10;;;13.10;99.90;;;;;;5061115;28;20276;-73
2022/04/29 07:05:11;;;;;;;10.77;9.20;;;13.10;99.90;;;;;;5060214;28;20933;-75
2022/04/29 07:07:36;;;;;;;13.07;10.20;;;13.20;99.90;;;;;;5062449;28;20624;-74
2022/04/29 07:10:02;;;;;;;17.40;10.50;;;13.30;99.90;;;;;;5065492;28;20195;-71
2022/04/29 07:12:28;;;;;;;16.40;10.40;;;13.40;99.90;;;;;;5064184;28;20208;-72
2022/04/29 07:14:54;;;;;;;14.47;10.83;;;13.60;99.90;;;;;;5064447;28;20502;-72
2022/04/29 07:17:23;;;;;;;15.30;10.60;;;13.80;99.90;;;;;;5065452;28;20206;-72
2022/04/29 07:19:50;;;;;;;11.50;10.03;;;13.90;99.90;;;;;;5068023;28;20187;-71
2022/04/29 07:22:16;;;;;;;12.20;10.30;;;14.20;99.90;;;;;;5067749;28;20507;-72
2022/04/29 07:24:42;;;;;;;12.30;10.80;;;14.50;99.90;;;;;;5061849;28;20545;-71
2022/04/29 07:27:08;;;;;;;15.90;10.23;;;14.80;99.90;;;;;;5063331;28;20509;-70
2022/04/29 07:29:33;;;;;;;11.70;10.00;;;15.10;99.90;;;;;;5065340;28;20184;-72
2022/04/29 07:31:59;;;;;;;12.00;10.73;;;15.50;99.90;;;;;;5066780;28;20263;-72
2022/04/29 07:41:44;;;;;;;13.60;9.60;;;15.70;99.90;;;;;;5067583;28;20562;-72
2022/04/29 07:42:38;;;;;;;13.17;11.20;;;16.70;95.90;;;;;;5068924;28;20472;-72
2022/04/29 07:45:04;;;;;;;14.63;11.10;;;16.90;94.30;;;;;;5069007;28;20868;-72
2022/04/29 07:47:30;;;;;;;15.30;11.80;;;17.10;94.00;;;;;;5067194;28;20696;-72
2022/04/29 07:49:55;;;;;;;14.87;11.30;;;17.10;92.50;;;;;;5068174;28;20553;-71
2022/04/29 07:52:21;;;;;;;13.37;11.10;;;17.20;92.50;;;;;;5067124;28;20184;-72
2022/04/29 07:54:47;;;;;;;12.10;10.80;;;17.70;91.70;;;;;;5067082;28;20212;-72
2022/04/29 07:57:13;;;;;;;12.60;10.80;;;18.20;88.50;;;;;;5065282;28;20199;-71
2022/04/29 07:59:38;;;;;;;15.97;10.90;;;18.60;83.00;;;;;;5069467;28;20196;-71
2022/04/29 08:02:04;;;;;;;11.53;10.33;;;18.90;79.00;;;;;;5066969;28;20177;-72
2022/04/29 08:04:30;;;;;;;16.17;10.90;;;20.00;71.90;;;;;;5065881;28;20212;-72
2022/04/29 08:06:55;;;;;;;14.00;10.30;;;20.90;64.70;;;;;;5067479;28;20512;-72
2022/04/29 08:09:21;;;;;;;15.30;10.63;;;21.40;57.30;;;;;;5067953;28;20192;-73
2022/04/29 08:11:46;;;;;;;11.53;10.20;;;21.90;52.60;;;;;;5067692;28;20175;-72
2022/04/29 08:14:12;;;;;;;11.20;9.70;;;22.80;48.80;;;;;;5065728;28;20204;-73
2022/04/29 08:16:38;;;;;;;9.90;8.90;;;23.30;49.30;;;;;;5063632;28;20184;-72
2022/04/29 08:19:04;;;;;;;11.73;9.40;;;23.40;49.30;;;;;;5067666;28;20487;-72
2022/04/29 08:21:29;;;;;;;14.00;10.10;;;23.20;49.10;;;;;;5067413;28;20191;-73
2022/04/29 08:23:55;;;;;;;14.13;10.33;;;23.50;49.30;;;;;;5068775;28;20192;-72
2022/04/29 08:26:20;;;;;;;14.80;10.30;;;23.80;49.70;;;;;;5063350;28;20184;-72
2022/04/29 08:28:46;;;;;;;17.47;11.33;;;23.80;49.60;;;;;;5066089;28;20599;-74
2022/04/29 08:31:11;;;;;;;23.17;11.23;;;23.90;49.60;;;;;;5065488;28;20536;-73
2022/04/29 08:33:37;;;;;;;13.57;11.00;;;23.90;49.60;;;;;;5065848;28;20535;-72
2022/04/29 08:36:03;;;;;;;17.67;10.70;;;24.10;49.80;;;;;;5067624;28;20272;-72
2022/04/29 08:38:28;;;;;;;21.30;10.97;;;23.30;49.20;;;;;;5068359;28;20225;-73
2022/04/29 08:40:59;;;;;;;16.63;10.00;;;22.90;48.80;;;;;;5064799;28;20680;-72
2022/04/29 08:43:26;;;;;;;16.30;9.03;;;22.60;42.00;;;;;;5061431;28;20669;-72
2022/04/29 08:45:51;;;;;;;12.90;9.40;;;22.30;46.00;;;;;;5062967;28;20521;-73
2022/04/29 08:48:18;;;;;;;13.60;9.80;;;22.10;47.60;;;;;;5066318;28;20525;-73
2022/04/29 08:50:44;;;;;;;13.60;10.63;;;21.80;48.00;;;;;;5067218;28;20275;-73
2022/04/29 08:53:10;;;;;;;12.43;10.30;;;21.50;47.60;;;;;;5064944;28;20909;-72
2022/04/29 08:58:39;;;;;;;12.60;11.03;;;21.40;47.60;;;;;;5065874;28;20555;-73
2022/04/29 09:01:16;;;;;;;15.83;12.20;;;21.80;47.90;;;;;;5064695;28;20432;-73
2022/04/29 09:03:44;;;;;;;14.53;12.67;;;22.40;48.40;;;;;;5063476;28;20887;-72
2022/04/29 09:06:09;;;;;;;17.30;13.10;;;23.10;49.00;;;;;;5063918;28;20444;-73
2022/04/29 09:08:46;;;;;;;15.93;11.00;;;24.00;45.30;;;;;;5065952;28;20421;-73
2022/04/29 09:11:20;;;;;;;13.07;11.13;;;25.50;36.40;;;;;;5065633;28;20371;-71
2022/04/29 09:13:46;;;;;;;17.20;11.37;;;27.00;27.80;;;;;;5067573;28;20441;-73
2022/04/29 09:16:12;;;;;;;17.03;12.70;;;28.10;23.80;;;;;;5066696;28;20215;-73
2022/04/29 09:18:43;;;;;;;14.43;11.47;;;28.40;19.60;;;;;;5065203;28;20255;-73
2022/04/29 09:21:16;;;;;;;13.03;10.97;;;28.00;20.60;;;;;;5064522;28;20180;-73
2022/04/29 09:23:54;;;;;;;18.70;13.13;;;27.50;20.00;;;;;;5062081;28;20277;-73
2022/04/29 09:26:28;;;;;;;17.02;12.40;;;27.80;21.70;;;;;;5063383;28;20201;-73
2022/04/29 09:29:08;;;;;;;12.90;11.60;;;29.40;16.80;;;;;;5061346;28;20166;-73
2022/04/29 09:31:55;;;;;;;13.13;11.05;;;30.90;11.00;;;;;;5060685;28;20178;-73
2022/04/29 09:34:22;;;;;;;11.13;9.95;;;31.90;4.60;;;;;;5062362;28;20204;-73
2022/04/29 09:36:48;;;;;;;10.75;9.65;;;32.20;2.90;;;;;;5065570;28;20230;-74
2022/04/29 09:39:32;;;;;;;10.52;9.18;;;32.50;1.00;;;;;;5067868;28;20736;-73
2022/04/29 09:42:00;;;;;;;10.40;8.73;;;32.80;1.00;;;;;;5064375;28;20175;-74
2022/04/29 09:44:36;;;;;;;11.20;9.13;;;32.40;1.00;;;;;;5065453;28;20310;-74
2022/04/29 09:47:11;;;;;;;12.40;9.13;;;31.30;1.00;;;;;;5059987;28;20176;-74
2022/04/29 09:49:37;;;;;;;11.13;9.43;;;30.60;1.00;;;;;;5062067;28;20232;-72
2022/04/29 09:52:03;;;;;;;12.38;9.90;;;29.70;5.10;;;;;;5061908;28;20187;-73
2022/04/29 09:54:31;;;;;;;10.82;9.68;;;29.30;4.50;;;;;;5066778;28;20200;-74
2022/04/29 09:57:11;;;;;;;10.48;8.90;;;29.50;4.10;;;;;;5064404;28;20176;-73
2022/04/29 09:59:41;;;;;;;10.77;8.90;;;29.70;2.30;;;;;;5063799;28;20182;-73
2022/04/29 10:02:08;;;;;;;14.00;9.40;;;29.60;4.50;;;;;;5063781;28;20555;-74
2022/04/29 10:04:41;;;;;;;11.30;9.50;;;29.20;3.90;;;;;;5066232;28;20219;-73
2022/04/29 10:07:08;;;;;;;12.18;8.23;;;29.10;3.70;;;;;;5084924;28;20229;-73
2022/04/29 10:09:36;;;;;;;12.10;9.02;;;29.50;2.50;;;;;;5069307;28;20611;-72
2022/04/29 10:12:04;;;;;;;10.07;8.07;;;30.10;1.00;;;;;;5062243;28;20558;-71
2022/04/29 10:14:31;;;;;;;11.60;8.73;;;30.50;1.00;;;;;;5067901;28;20289;-73
2022/04/29 10:22:43;;;;;;;8.60;7.18;;;31.80;1.00;;;;;;5070131;28;20241;-75
2022/04/29 10:25:09;;;;;;;10.70;6.82;;;32.10;1.00;;;;;;5070565;28;20196;-73
2022/04/29 10:27:38;;;;;;;7.22;6.53;;;32.10;1.00;;;;;;5070427;28;20164;-73
2022/04/29 10:30:05;;;;;;;9.57;7.30;;;32.00;1.00;;;;;;5069446;28;20192;-72
2022/04/29 10:33:06;;;;;;;8.95;6.53;;;31.40;1.00;;;;;;5069579;28;20188;-73
2022/04/29 10:35:59;;;;;;;9.88;6.22;;;31.30;1.00;;;;;;5071333;28;20261;-72
2022/04/29 10:38:34;;;;;;;8.90;5.18;;;30.70;1.00;;;;;;5068629;28;20674;-71
2022/04/29 10:41:21;;;;;;;7.78;5.95;;;29.50;1.00;;;;;;5068801;28;20636;-73
2022/04/29 10:43:52;;;;;;;5.82;4.85;;;28.50;1.00;;;;;;5063175;28;20207;-72
2022/04/29 10:46:36;;;;;;;6.40;5.40;;;27.70;1.00;;;;;;5066921;28;20684;-72
2022/04/29 10:49:26;;;;;;;6.00;5.30;;;27.70;1.00;;;;;;5066292;28;20215;-73
2022/04/29 10:52:00;;;;;;;7.53;5.90;;;27.70;1.00;;;;;;5069016;28;20172;-73
2022/04/29 10:54:46;;;;;;;6.57;5.57;;;27.80;1.00;;;;;;5070585;28;20623;-73
2022/04/29 10:57:14;;;;;;;6.73;4.70;;;28.60;1.00;;;;;;5068188;28;20285;-73
2022/04/29 10:59:57;;;;;;;6.37;5.40;;;28.50;1.00;;;;;;5062005;28;20207;-73
2022/04/29 11:02:25;;;;;;;5.77;4.67;;;28.40;1.00;;;;;;5068177;28;20203;-72
2022/04/29 11:04:51;;;;;;;6.33;4.80;;;28.50;1.00;;;;;;5069166;28;20196;-72
2022/04/29 11:07:39;;;;;;;6.70;5.30;;;28.60;1.00;;;;;;5068868;28;20184;-72
2022/04/29 11:10:07;;;;;;;5.20;4.28;;;29.30;1.00;;;;;;5066824;28;20564;-72
2022/04/29 11:12:41;;;;;;;5.97;5.10;;;30.20;1.00;;;;;;5068765;28;20191;-72
2022/04/29 11:15:21;;;;;;;6.88;5.60;;;30.70;1.00;;;;;;5061789;28;20625;-73
2022/04/29 11:17:47;;;;;;;6.55;5.32;;;31.90;1.00;;;;;;5064249;28;20605;-73
2022/04/29 11:20:19;;;;;;;6.43;5.53;;;32.70;1.00;;;;;;5066846;28;20179;-72
2022/04/29 11:25:58;;;;;;;5.45;4.60;;;32.50;1.00;;;;;;5066408;28;20187;-73
2022/04/29 11:28:25;;;;;;;7.55;5.20;;;33.60;1.00;;;;;;5065602;28;20303;-73
2022/04/29 11:31:02;;;;;;;9.07;4.60;;;34.70;1.00;;;;;;5067698;28;20563;-73
2022/04/29 11:33:28;;;;;;;6.00;4.13;;;35.10;1.00;;;;;;5066551;28;20211;-72
2022/04/29 11:36:01;;;;;;;4.82;4.18;;;35.90;1.00;;;;;;5067316;28;20376;-73
2022/04/29 11:38:29;;;;;;;5.05;4.28;;;36.70;1.00;;;;;;5067859;28;20179;-73
2022/04/29 11:40:54;;;;;;;6.15;4.80;;;37.00;1.00;;;;;;5066517;28;21611;-72
2022/04/29 11:43:23;;;;;;;7.07;4.40;;;37.20;1.00;;;;;;5068611;28;20202;-73
2022/04/29 11:46:05;;;;;;;5.25;4.13;;;37.10;1.00;;;;;;5068897;28;20168;-73
2022/04/29 11:48:31;;;;;;;5.72;4.78;;;35.90;1.00;;;;;;5065088;28;20207;-72
2022/04/29 11:50:58;;;;;;;6.25;4.78;;;34.50;1.00;;;;;;5068668;28;20164;-71
2022/04/29 11:53:24;;;;;;;5.80;5.03;;;32.50;1.00;;;;;;5066652;28;20293;-73
2022/04/29 11:55:50;;;;;;;5.63;4.38;;;32.70;1.00;;;;;;5066437;28;20242;-73
2022/04/29 11:58:19;;;;;;;6.45;4.50;;;33.10;1.00;;;;;;5066198;28;20497;-73
2022/04/29 12:00:49;;;;;;;6.25;5.30;;;32.70;1.00;;;;;;5067303;28;20172;-72
2022/04/29 12:03:20;;;;;;;7.20;4.85;;;32.20;1.00;;;;;;5067650;28;20206;-73
2022/04/29 12:05:45;;;;;;;7.63;4.40;;;32.00;1.00;;;;;;5067667;28;20175;-73
2022/04/29 12:08:12;;;;;;;5.78;4.30;;;32.50;1.00;;;;;;5067356;28;20183;-71
2022/04/29 12:10:41;;;;;;;5.50;4.93;;;32.50;1.00;;;;;;5068702;28;20424;-71
2022/04/29 12:13:06;;;;;;;6.97;4.70;;;31.30;1.00;;;;;;5066578;28;20179;-71
2022/04/29 12:15:37;;;;;;;6.85;4.20;;;31.20;1.00;;;;;;5067012;28;20203;-70
2022/04/29 12:18:13;;;;;;;5.15;4.63;;;30.40;1.00;;;;;;5080806;28;20184;-70
2022/04/29 12:20:39;;;;;;;6.22;4.95;;;29.30;1.00;;;;;;5067369;28;20171;-71
2022/04/29 12:23:24;;;;;;;5.63;4.93;;;27.20;1.00;;;;;;5067773;28;20180;-72
2022/04/29 12:25:51;;;;;;;7.93;4.40;;;27.10;1.00;;;;;;5067190;28;20190;-71
2022/04/29 12:28:23;;;;;;;8.07;4.47;;;26.30;1.00;;;;;;5066712;28;20172;-72
2022/04/29 12:36:47;;;;;;;6.57;4.87;;;26.70;1.00;;;;;;5068076;28;20253;-72
2022/04/29 12:39:15;;;;;;;7.30;4.50;;;27.10;1.00;;;;;;5066892;28;20180;-72
2022/04/29 12:41:41;;;;;;;6.73;4.43;;;29.00;1.00;;;;;;5066233;28;20705;-72
2022/04/29 12:45:03;;;;;;;5.68;4.68;;;31.30;1.00;;;;;;5066309;28;20270;-72
2022/04/29 12:47:02;;;;;;;8.85;4.63;;;32.50;1.00;;;;;;5065237;28;20275;-72
2022/04/29 12:49:27;;;;;;;10.25;4.80;;;32.60;1.00;;;;;;5068975;28;20176;-72
2022/04/29 12:51:58;;;;;;;4.82;4.32;;;33.20;1.00;;;;;;5066546;28;20183;-72
2022/04/29 12:54:25;;;;;;;9.82;4.00;;;32.80;1.00;;;;;;5065748;28;20215;-71
2022/04/29 12:56:51;;;;;;;5.60;4.10;;;31.80;1.00;;;;;;5067404;28;20175;-72
2022/04/29 12:59:24;;;;;;;6.40;3.83;;;31.00;1.00;;;;;;5057786;28;20385;-72
2022/04/29 13:01:53;;;;;;;5.30;3.92;;;29.90;1.00;;;;;;5064234;28;20243;-72
2022/04/29 13:04:19;;;;;;;5.85;4.55;;;29.40;1.00;;;;;;5065898;28;20261;-72
2022/04/29 13:06:44;;;;;;;5.30;4.80;;;28.60;1.00;;;;;;5067900;28;20176;-72
2022/04/29 13:09:11;;;;;;;8.98;5.13;;;28.40;1.00;;;;;;5067601;28;20168;-72
2022/04/29 13:11:37;;;;;;;6.05;4.70;;;28.60;1.00;;;;;;5066323;28;20172;-72
2022/04/29 13:14:02;;;;;;;5.85;4.80;;;29.50;1.00;;;;;;5065987;28;20192;-72
2022/04/29 13:16:28;;;;;;;5.28;4.75;;;30.50;1.00;;;;;;5065591;28;20230;-73
2022/04/29 13:18:53;;;;;;;6.07;4.88;;;30.30;1.00;;;;;;5067250;28;20233;-72
2022/04/29 13:21:19;;;;;;;7.13;5.07;;;31.30;1.00;;;;;;5063640;28;20208;-72